createdAt,value
2023-05-09T00:00:42.811Z,7.61
2023-05-09T00:01:45.294Z,7.67
2023-05-09T00:02:47.784Z,7.50
2023-05-09T00:03:51.319Z,7.45
2023-05-09T00:04:52.905Z,7.46
2023-05-09T00:05:54.442Z,7.39
2023-05-09T00:06:55.931Z,7.34
2023-05-09T00:07:57.499Z,7.31
2023-05-09T00:08:58.941Z,7.26
2023-05-09T00:10:00.811Z,7.31
2023-05-09T00:11:02.259Z,7.34
2023-05-09T00:12:04.115Z,7.17
2023-05-09T00:13:06.013Z,7.19
2023-05-09T00:14:07.845Z,7.23
2023-05-09T00:15:09.910Z,7.28
2023-05-09T00:16:11.417Z,7.21
2023-05-09T00:17:15.600Z,7.29
2023-05-09T00:18:17.997Z,7.24
2023-05-09T00:19:19.654Z,7.30
2023-05-09T00:20:24.259Z,7.28
2023-05-09T00:21:25.953Z,7.19
2023-05-09T00:22:28.025Z,7.23
2023-05-09T00:23:30.364Z,7.18
2023-05-09T00:24:31.921Z,7.30
2023-05-09T00:25:33.457Z,7.24
2023-05-09T00:26:34.935Z,7.19
2023-05-09T00:27:36.619Z,7.16
2023-05-09T00:28:38.079Z,7.02
2023-05-09T00:29:39.546Z,7.02
2023-05-09T00:30:41.016Z,7.00
2023-05-09T00:31:42.422Z,6.90
2023-05-09T00:32:43.927Z,7.09
2023-05-09T00:33:45.492Z,7.02
2023-05-09T00:34:46.882Z,7.04
2023-05-09T00:35:48.277Z,7.15
2023-05-09T00:36:50.614Z,7.00
2023-05-09T00:37:52.051Z,6.96
2023-05-09T00:38:53.474Z,6.91
2023-05-09T00:39:54.870Z,6.94
2023-05-09T00:40:56.305Z,6.88
2023-05-09T00:41:57.716Z,6.99
2023-05-09T00:43:00.038Z,7.03
2023-05-09T00:44:01.520Z,7.02
2023-05-09T00:45:03.266Z,6.94
2023-05-09T00:46:04.835Z,6.97
2023-05-09T00:47:09.498Z,6.99
2023-05-09T00:48:11.200Z,7.10
2023-05-09T00:49:12.724Z,7.02
2023-05-09T00:50:14.824Z,7.00
2023-05-09T00:51:16.884Z,7.03
2023-05-09T00:52:23.019Z,6.97
2023-05-09T00:53:25.305Z,7.04
2023-05-09T00:54:26.931Z,7.07
2023-05-09T00:55:28.345Z,6.94
2023-05-09T00:56:29.829Z,6.94
2023-05-09T00:57:31.231Z,7.01
2023-05-09T00:58:32.716Z,6.98
2023-05-09T00:59:34.621Z,7.00
2023-05-09T01:00:36.627Z,7.10
2023-05-09T01:01:38.035Z,7.08
2023-05-09T01:02:44.578Z,7.14
2023-05-09T01:03:47.300Z,7.13
2023-05-09T01:04:49.096Z,7.12
2023-05-09T01:06:09.334Z,7.05
2023-05-09T01:07:19.304Z,7.07
2023-05-09T01:08:44.355Z,7.09
2023-05-09T01:10:13.415Z,7.10
2023-05-09T01:11:32.120Z,7.10
2023-05-09T01:12:51.017Z,7.23
2023-05-09T01:14:11.154Z,7.30
2023-05-09T01:15:24.083Z,7.31
2023-05-09T01:16:35.329Z,7.28
2023-05-09T01:17:52.822Z,7.26
2023-05-09T01:19:23.009Z,7.07
2023-05-09T01:20:35.543Z,7.22
2023-05-09T01:21:38.779Z,7.13
2023-05-09T01:22:46.690Z,7.08
2023-05-09T01:24:03.352Z,7.06
2023-05-09T01:25:32.677Z,7.07
2023-05-09T01:27:11.764Z,7.00
2023-05-09T01:28:42.047Z,6.93
2023-05-09T01:29:47.351Z,6.94
2023-05-09T01:30:53.458Z,6.93
2023-05-09T01:31:56.940Z,6.88
2023-05-09T01:33:01.030Z,6.95
2023-05-09T01:34:03.282Z,6.83
2023-05-09T01:35:06.134Z,6.71
2023-05-09T01:36:13.267Z,6.67
2023-05-09T01:37:19.658Z,6.68
2023-05-09T01:38:25.476Z,6.65
2023-05-09T01:39:28.380Z,6.67
2023-05-09T01:40:31.936Z,6.64
2023-05-09T01:41:37.429Z,6.63
2023-05-09T01:42:45.590Z,6.59
2023-05-09T01:43:50.459Z,6.56
2023-05-09T01:44:54.088Z,6.64
2023-05-09T01:45:57.330Z,6.65
2023-05-09T01:47:01.144Z,6.59
2023-05-09T01:48:04.456Z,6.63
2023-05-09T01:49:08.680Z,6.70
2023-05-09T01:50:12.048Z,6.71
2023-05-09T01:51:15.536Z,6.59
2023-05-09T01:52:19.947Z,6.54
2023-05-09T01:53:23.095Z,6.59
2023-05-09T01:54:27.364Z,6.49
2023-05-09T01:55:32.617Z,6.52
2023-05-09T01:56:36.259Z,6.34
2023-05-09T01:57:39.439Z,6.32
2023-05-09T01:58:42.439Z,6.39
2023-05-09T01:59:45.964Z,6.47
2023-05-09T02:00:48.540Z,6.34
2023-05-09T02:01:50.790Z,6.23
2023-05-09T02:02:53.310Z,6.18
2023-05-09T02:03:56.907Z,6.16
2023-05-09T02:04:59.099Z,6.16
2023-05-09T02:06:03.302Z,6.08
2023-05-09T02:07:06.171Z,6.16
2023-05-09T02:08:08.567Z,6.14
2023-05-09T02:09:11.285Z,6.12
2023-05-09T02:10:15.557Z,6.03
2023-05-09T02:11:17.051Z,5.99
2023-05-09T02:12:18.477Z,5.93
2023-05-09T02:13:20.005Z,5.92
2023-05-09T02:14:21.978Z,5.87
2023-05-09T02:15:24.444Z,5.96
2023-05-09T02:16:26.697Z,6.14
2023-05-09T02:17:30.660Z,6.06
2023-05-09T02:18:32.681Z,5.98
2023-05-09T02:19:35.301Z,5.90
2023-05-09T02:20:36.834Z,5.87
2023-05-09T02:21:38.385Z,6.02
2023-05-09T02:22:42.825Z,5.94
2023-05-09T02:23:44.418Z,5.87
2023-05-09T02:24:45.970Z,5.84
2023-05-09T02:25:47.634Z,5.77
2023-05-09T02:26:49.094Z,5.72
2023-05-09T02:27:52.027Z,5.70
2023-05-09T02:28:54.286Z,5.81
2023-05-09T02:29:58.320Z,5.66
2023-05-09T02:31:03.441Z,5.66
2023-05-09T02:32:11.296Z,5.58
2023-05-09T02:33:13.762Z,5.54
2023-05-09T02:34:16.560Z,5.54
2023-05-09T02:35:19.566Z,5.52
2023-05-09T02:36:22.370Z,5.50
2023-05-09T02:37:24.647Z,5.52
2023-05-09T02:38:27.142Z,5.56
2023-05-09T02:39:28.837Z,5.51
2023-05-09T02:40:31.034Z,5.49
2023-05-09T02:41:32.680Z,5.49
2023-05-09T02:42:34.105Z,5.41
2023-05-09T02:43:35.614Z,5.51
2023-05-09T02:44:38.822Z,5.59
2023-05-09T02:45:40.296Z,5.58
2023-05-09T02:46:41.725Z,5.62
2023-05-09T02:47:43.408Z,5.57
2023-05-09T02:48:44.833Z,5.57
2023-05-09T02:49:46.376Z,5.44
2023-05-09T02:50:47.784Z,5.42
2023-05-09T02:51:49.200Z,5.40
2023-05-09T02:52:50.792Z,5.41
2023-05-09T02:53:52.198Z,5.41
2023-05-09T02:54:53.618Z,5.44
2023-05-09T02:55:55.017Z,5.34
2023-05-09T02:56:56.695Z,5.38
2023-05-09T02:58:09.709Z,5.52
2023-05-09T02:59:15.001Z,5.48
2023-05-09T03:00:17.960Z,5.51
2023-05-09T03:01:19.393Z,5.57
2023-05-09T03:02:21.008Z,5.58
2023-05-09T03:03:23.351Z,5.45
2023-05-09T03:04:25.668Z,5.54
2023-05-09T03:05:27.203Z,5.39
2023-05-09T03:06:28.617Z,5.38
2023-05-09T03:07:30.773Z,5.46
2023-05-09T03:08:32.172Z,5.44
2023-05-09T03:09:33.615Z,5.42
2023-05-09T03:10:35.165Z,5.44
2023-05-09T03:11:36.801Z,5.48
2023-05-09T03:12:39.057Z,5.50
2023-05-09T03:13:40.493Z,5.40
2023-05-09T03:14:41.944Z,5.56
2023-05-09T03:15:43.369Z,5.51
2023-05-09T03:16:44.803Z,5.49
2023-05-09T03:17:46.587Z,5.39
2023-05-09T03:18:48.100Z,5.43
2023-05-09T03:19:49.604Z,5.34
2023-05-09T03:20:51.100Z,5.33
2023-05-09T03:21:52.628Z,5.40
2023-05-09T03:22:54.051Z,5.28
2023-05-09T03:23:55.793Z,5.24
2023-05-09T03:24:57.502Z,5.28
2023-05-09T03:25:58.915Z,5.24
2023-05-09T03:27:00.420Z,5.22
2023-05-09T03:28:01.856Z,5.23
2023-05-09T03:29:03.913Z,5.20
2023-05-09T03:30:05.912Z,5.14
2023-05-09T03:31:07.402Z,5.11
2023-05-09T03:32:08.851Z,5.15
2023-05-09T03:33:10.296Z,5.04
2023-05-09T03:34:15.122Z,5.01
2023-05-09T03:35:16.927Z,4.94
2023-05-09T03:36:18.610Z,4.91
2023-05-09T03:37:20.246Z,5.08
2023-05-09T03:38:24.231Z,5.21
2023-05-09T03:39:25.741Z,5.36
2023-05-09T03:40:27.203Z,5.38
2023-05-09T03:41:28.629Z,5.45
2023-05-09T03:42:30.043Z,5.50
2023-05-09T03:43:31.436Z,5.38
2023-05-09T03:44:32.960Z,5.38
2023-05-09T03:45:36.060Z,5.31
2023-05-09T03:46:37.596Z,5.27
2023-05-09T03:47:39.125Z,5.28
2023-05-09T03:48:40.581Z,5.18
2023-05-09T03:49:42.481Z,5.32
2023-05-09T03:50:44.038Z,5.31
2023-05-09T03:51:45.461Z,5.34
2023-05-09T03:52:47.434Z,5.32
2023-05-09T03:53:48.752Z,5.41
2023-05-09T03:54:50.174Z,5.38
2023-05-09T03:55:51.628Z,5.33
2023-05-09T03:56:53.018Z,5.38
2023-05-09T03:57:54.967Z,5.42
2023-05-09T03:58:56.396Z,5.46
2023-05-09T03:59:57.874Z,5.36
2023-05-09T04:00:59.335Z,5.30
2023-05-09T04:02:01.065Z,5.31
2023-05-09T04:03:02.751Z,5.32
2023-05-09T04:04:04.384Z,5.39
2023-05-09T04:05:06.179Z,5.44
2023-05-09T04:06:08.120Z,5.40
2023-05-09T04:07:09.558Z,5.56
2023-05-09T04:08:11.039Z,5.64
2023-05-09T04:09:12.449Z,5.61
2023-05-09T04:10:13.864Z,5.61
2023-05-09T04:11:15.392Z,5.75
2023-05-09T04:12:16.858Z,5.93
2023-05-09T04:13:18.320Z,6.11
2023-05-09T04:14:19.770Z,6.07
2023-05-09T04:15:21.274Z,5.99
2023-05-09T04:16:22.724Z,6.00
2023-05-09T04:17:24.185Z,5.89
2023-05-09T04:18:25.730Z,5.85
2023-05-09T04:19:27.191Z,6.12
2023-05-09T04:20:28.786Z,6.19
2023-05-09T04:21:31.701Z,6.01
2023-05-09T04:22:33.110Z,6.09
2023-05-09T04:23:34.524Z,6.16
2023-05-09T04:24:35.933Z,6.19
2023-05-09T04:25:37.409Z,6.12
2023-05-09T04:26:39.302Z,6.13
2023-05-09T04:27:42.162Z,6.23
2023-05-09T04:28:43.806Z,6.35
2023-05-09T04:29:45.507Z,6.36
2023-05-09T04:30:46.934Z,6.40
2023-05-09T04:31:48.515Z,6.43
2023-05-09T04:32:50.126Z,6.44
2023-05-09T04:33:52.149Z,6.50
2023-05-09T04:34:53.529Z,6.52
2023-05-09T04:35:54.963Z,6.58
2023-05-09T04:36:56.443Z,6.59
2023-05-09T04:37:57.867Z,6.62
2023-05-09T04:38:59.468Z,6.62
2023-05-09T04:40:01.392Z,6.75
2023-05-09T04:41:02.824Z,6.74
2023-05-09T04:42:05.001Z,6.77
2023-05-09T04:43:06.516Z,6.76
2023-05-09T04:44:07.925Z,6.82
2023-05-09T04:45:11.694Z,6.94
2023-05-09T04:46:13.280Z,7.05
2023-05-09T04:47:14.749Z,7.13
2023-05-09T04:48:16.175Z,7.37
2023-05-09T04:49:17.592Z,7.64
2023-05-09T04:50:19.023Z,7.81
2023-05-09T04:51:20.459Z,8.10
2023-05-09T04:52:22.110Z,8.47
2023-05-09T04:53:23.630Z,8.93
2023-05-09T04:54:25.056Z,8.98
2023-05-09T04:55:26.468Z,9.17
2023-05-09T04:56:27.851Z,9.10
2023-05-09T04:57:29.280Z,8.96
2023-05-09T04:58:31.139Z,8.97
2023-05-09T04:59:32.691Z,8.85
2023-05-09T05:00:34.405Z,8.91
2023-05-09T05:01:35.864Z,8.83
2023-05-09T05:02:37.338Z,8.89
2023-05-09T05:03:38.820Z,8.97
2023-05-09T05:04:40.280Z,9.02
2023-05-09T05:05:42.418Z,9.06
2023-05-09T05:06:43.852Z,9.09
2023-05-09T05:07:45.300Z,9.21
2023-05-09T05:08:46.717Z,9.41
2023-05-09T05:09:48.221Z,9.52
2023-05-09T05:10:49.673Z,9.59
2023-05-09T05:12:00.761Z,9.76
2023-05-09T05:13:03.447Z,9.88
2023-05-09T05:14:04.903Z,10.05
2023-05-09T05:15:06.673Z,9.99
2023-05-09T05:16:08.093Z,10.11
2023-05-09T05:17:09.536Z,10.19
2023-05-09T05:18:10.983Z,10.18
2023-05-09T05:19:12.382Z,10.42
2023-05-09T05:20:14.063Z,10.51
2023-05-09T05:21:16.260Z,10.48
2023-05-09T05:22:17.718Z,10.43
2023-05-09T05:23:19.337Z,10.42
2023-05-09T05:24:20.802Z,10.36
2023-05-09T05:25:22.247Z,10.43
2023-05-09T05:26:23.636Z,10.41
2023-05-09T05:27:25.024Z,10.43
2023-05-09T05:28:26.422Z,10.27
2023-05-09T05:29:27.874Z,10.36
2023-05-09T05:30:30.368Z,10.27
2023-05-09T05:31:32.521Z,10.22
2023-05-09T05:32:33.995Z,10.28
2023-05-09T05:33:35.456Z,10.33
2023-05-09T05:34:36.865Z,10.36
2023-05-09T05:35:38.315Z,10.22
2023-05-09T05:36:39.711Z,10.31
2023-05-09T05:37:41.695Z,10.36
2023-05-09T05:38:42.989Z,10.31
2023-05-09T05:39:44.480Z,10.30
2023-05-09T05:40:45.980Z,10.32
2023-05-09T05:41:47.367Z,10.35
2023-05-09T05:42:48.863Z,10.27
2023-05-09T05:43:51.529Z,10.28
2023-05-09T05:44:54.907Z,10.36
2023-05-09T05:45:56.371Z,10.39
2023-05-09T05:46:57.844Z,10.29
2023-05-09T05:47:59.282Z,10.36
2023-05-09T05:49:00.839Z,10.55
2023-05-09T05:50:04.390Z,10.62
2023-05-09T05:51:06.527Z,10.54
2023-05-09T05:52:07.833Z,10.67
2023-05-09T05:53:09.220Z,10.76
2023-05-09T05:54:11.109Z,10.77
2023-05-09T05:55:12.520Z,10.86
2023-05-09T05:56:14.169Z,10.76
2023-05-09T05:57:15.583Z,10.70
2023-05-09T05:58:16.982Z,10.64
2023-05-09T05:59:18.420Z,10.63
2023-05-09T06:00:20.621Z,10.68
2023-05-09T06:01:22.059Z,10.59
2023-05-09T06:02:23.532Z,10.62
2023-05-09T06:03:25.062Z,10.52
2023-05-09T06:04:26.847Z,10.64
2023-05-09T06:05:28.259Z,10.72
2023-05-09T06:06:29.761Z,10.72
2023-05-09T06:07:31.399Z,10.75
2023-05-09T06:08:32.817Z,10.63
2023-05-09T06:09:34.269Z,10.72
2023-05-09T06:10:36.031Z,10.61
2023-05-09T06:11:37.611Z,10.75
2023-05-09T06:12:39.014Z,10.73
2023-05-09T06:13:40.393Z,10.75
2023-05-09T06:14:41.831Z,10.78
2023-05-09T06:15:43.507Z,10.78
2023-05-09T06:16:45.028Z,10.82
2023-05-09T06:17:46.504Z,10.86
2023-05-09T06:18:48.629Z,10.88
2023-05-09T06:19:50.111Z,10.96
2023-05-09T06:20:51.577Z,10.86
2023-05-09T06:21:53.026Z,10.96
2023-05-09T06:22:54.488Z,10.98
2023-05-09T06:24:05.036Z,11.00
2023-05-09T06:25:10.605Z,11.05
2023-05-09T06:26:12.347Z,11.01
2023-05-09T06:27:13.859Z,11.10
2023-05-09T06:28:15.338Z,11.00
2023-05-09T06:29:16.777Z,11.08
2023-05-09T06:30:26.365Z,10.97
2023-05-09T06:31:28.500Z,10.97
2023-05-09T06:32:30.018Z,11.02
2023-05-09T06:33:31.452Z,10.99
2023-05-09T06:34:32.927Z,11.05
2023-05-09T06:35:34.322Z,11.17
2023-05-09T06:36:35.840Z,11.20
2023-05-09T06:37:37.255Z,11.10
2023-05-09T06:38:38.634Z,11.07
2023-05-09T06:39:40.182Z,11.16
2023-05-09T06:40:41.859Z,11.21
2023-05-09T06:41:43.318Z,11.30
2023-05-09T06:42:45.221Z,11.26
2023-05-09T06:43:46.619Z,11.29
2023-05-09T06:44:48.070Z,11.46
2023-05-09T06:45:49.557Z,11.37
2023-05-09T06:46:50.950Z,11.31
2023-05-09T06:47:52.511Z,11.23
2023-05-09T06:48:56.933Z,11.31
2023-05-09T06:49:58.377Z,11.47
2023-05-09T06:50:59.802Z,11.60
2023-05-09T06:52:01.202Z,11.53
2023-05-09T06:53:02.620Z,11.44
2023-05-09T06:54:04.132Z,11.45
2023-05-09T06:55:06.249Z,11.63
2023-05-09T06:56:07.777Z,11.67
2023-05-09T06:57:09.258Z,11.61
2023-05-09T06:58:11.232Z,11.65
2023-05-09T06:59:13.372Z,11.73
2023-05-09T07:00:15.609Z,11.70
2023-05-09T07:01:17.679Z,11.64
2023-05-09T07:02:19.128Z,11.55
2023-05-09T07:03:20.592Z,11.54
2023-05-09T07:04:22.016Z,11.60
2023-05-09T07:05:23.490Z,11.63
2023-05-09T07:06:25.237Z,11.60
2023-05-09T07:07:26.672Z,11.64
2023-05-09T07:08:28.541Z,11.59
2023-05-09T07:09:29.954Z,11.57
2023-05-09T07:10:31.673Z,11.58
2023-05-09T07:11:37.196Z,11.61
2023-05-09T07:12:38.733Z,11.62
2023-05-09T07:13:40.186Z,11.72
2023-05-09T07:14:41.858Z,11.79
2023-05-09T07:15:43.455Z,11.72
2023-05-09T07:16:46.559Z,11.66
2023-05-09T07:17:48.162Z,11.68
2023-05-09T07:18:49.571Z,11.76
2023-05-09T07:19:51.940Z,11.70
2023-05-09T07:20:53.466Z,11.76
2023-05-09T07:21:54.903Z,11.73
2023-05-09T07:22:58.248Z,11.77
2023-05-09T07:23:59.767Z,11.84
2023-05-09T07:25:01.212Z,11.84
2023-05-09T07:26:02.648Z,11.86
2023-05-09T07:27:04.154Z,11.93
2023-05-09T07:28:05.874Z,12.01
2023-05-09T07:29:07.366Z,12.03
2023-05-09T07:30:09.362Z,12.00
2023-05-09T07:31:10.795Z,11.99
2023-05-09T07:32:12.263Z,12.09
2023-05-09T07:33:13.795Z,12.13
2023-05-09T07:34:16.715Z,12.22
2023-05-09T07:35:19.574Z,12.29
2023-05-09T07:36:21.148Z,12.40
2023-05-09T07:37:22.639Z,12.45
2023-05-09T07:38:24.044Z,12.47
2023-05-09T07:39:25.617Z,12.51
2023-05-09T07:40:27.104Z,12.36
2023-05-09T07:41:28.491Z,12.32
2023-05-09T07:42:32.533Z,12.26
2023-05-09T07:43:34.028Z,12.22
2023-05-09T07:44:35.612Z,12.47
2023-05-09T07:45:37.092Z,12.50
2023-05-09T07:46:40.788Z,12.55
2023-05-09T07:47:42.212Z,12.61
2023-05-09T07:48:43.643Z,12.69
2023-05-09T07:49:46.525Z,12.74
2023-05-09T07:50:47.967Z,12.76
2023-05-09T07:51:49.403Z,12.76
2023-05-09T07:52:51.824Z,12.76
2023-05-09T07:53:55.088Z,12.83
2023-05-09T07:54:56.524Z,12.80
2023-05-09T07:55:58.629Z,12.71
2023-05-09T07:57:00.359Z,12.71
2023-05-09T07:58:01.821Z,12.73
2023-05-09T07:59:03.360Z,12.86
2023-05-09T08:00:06.386Z,12.85
2023-05-09T08:01:07.831Z,12.87
2023-05-09T08:02:09.383Z,12.94
2023-05-09T08:03:11.065Z,12.87
2023-05-09T08:04:12.794Z,12.86
2023-05-09T08:05:14.542Z,12.82
2023-05-09T08:06:16.127Z,12.87
2023-05-09T08:07:17.555Z,12.94
2023-05-09T08:08:18.977Z,12.86
2023-05-09T08:09:21.565Z,12.91
2023-05-09T08:10:23.442Z,12.94
2023-05-09T08:11:24.997Z,13.06
2023-05-09T08:12:26.401Z,13.09
2023-05-09T08:13:28.033Z,13.10
2023-05-09T08:14:29.823Z,12.88
2023-05-09T08:15:31.372Z,13.08
2023-05-09T08:16:32.883Z,13.21
2023-05-09T08:17:34.462Z,13.18
2023-05-09T08:18:35.981Z,13.34
2023-05-09T08:19:37.421Z,13.32
2023-05-09T08:20:38.965Z,13.33
2023-05-09T08:21:40.467Z,13.31
2023-05-09T08:22:41.944Z,13.23
2023-05-09T08:23:43.337Z,13.23
2023-05-09T08:24:46.306Z,13.14
2023-05-09T08:25:47.717Z,13.23
2023-05-09T08:26:49.150Z,13.38
2023-05-09T08:27:52.928Z,13.46
2023-05-09T08:28:54.519Z,13.47
2023-05-09T08:29:55.934Z,13.33
2023-05-09T08:30:57.885Z,13.36
2023-05-09T08:31:59.582Z,13.50
2023-05-09T08:33:01.119Z,13.59
2023-05-09T08:34:02.842Z,13.54
2023-05-09T08:35:04.526Z,13.57
2023-05-09T08:36:06.408Z,13.53
2023-05-09T08:37:07.793Z,13.55
2023-05-09T08:38:09.284Z,13.48
2023-05-09T08:39:10.983Z,13.54
2023-05-09T08:40:12.724Z,13.57
2023-05-09T08:41:14.456Z,13.64
2023-05-09T08:42:19.899Z,13.95
2023-05-09T08:43:23.654Z,13.86
2023-05-09T08:44:25.962Z,13.79
2023-05-09T08:45:30.482Z,13.87
2023-05-09T08:46:37.120Z,13.88
2023-05-09T08:47:38.827Z,13.92
2023-05-09T08:48:43.039Z,13.93
2023-05-09T08:49:45.366Z,13.92
2023-05-09T08:50:47.152Z,13.99
2023-05-09T08:51:49.054Z,14.01
2023-05-09T08:52:51.533Z,14.06
2023-05-09T08:53:53.426Z,14.07
2023-05-09T08:54:54.774Z,14.17
2023-05-09T08:55:58.246Z,14.22
2023-05-09T08:57:01.425Z,14.18
2023-05-09T08:58:04.095Z,14.27
2023-05-09T08:59:05.785Z,14.14
2023-05-09T09:00:11.163Z,14.30
2023-05-09T09:01:14.100Z,14.37
2023-05-09T09:02:15.875Z,14.32
2023-05-09T09:03:17.591Z,14.42
2023-05-09T09:04:19.141Z,14.55
2023-05-09T09:05:40.059Z,14.68
2023-05-09T09:06:43.607Z,14.66
2023-05-09T09:07:45.984Z,14.75
2023-05-09T09:08:48.924Z,14.73
2023-05-09T09:09:52.240Z,14.75
2023-05-09T09:10:54.241Z,14.85
2023-05-09T09:11:55.906Z,14.92
2023-05-09T09:12:59.072Z,14.97
2023-05-09T09:14:05.570Z,14.93
2023-05-09T09:15:14.878Z,14.87
2023-05-09T09:16:21.028Z,14.96
2023-05-09T09:17:28.747Z,15.03
2023-05-09T09:18:33.517Z,15.05
2023-05-09T09:19:36.853Z,14.96
2023-05-09T09:20:45.005Z,14.83
2023-05-09T09:21:53.762Z,14.87
2023-05-09T09:23:03.776Z,14.90
2023-05-09T09:24:07.704Z,14.95
2023-05-09T09:25:09.442Z,14.99
2023-05-09T09:26:10.968Z,14.98
2023-05-09T09:27:12.378Z,14.96
2023-05-09T09:28:13.787Z,15.08
2023-05-09T09:29:16.023Z,15.03
2023-05-09T09:30:17.940Z,14.95
2023-05-09T09:31:20.332Z,14.95
2023-05-09T09:32:33.272Z,15.00
2023-05-09T09:33:35.877Z,15.05
2023-05-09T09:34:37.917Z,15.16
2023-05-09T09:35:40.295Z,15.27
2023-05-09T09:36:41.803Z,15.30
2023-05-09T09:37:43.636Z,15.34
2023-05-09T09:38:44.967Z,15.43
2023-05-09T09:39:56.639Z,15.50
2023-05-09T09:40:59.177Z,15.58
2023-05-09T09:42:11.236Z,15.62
2023-05-09T09:43:12.634Z,15.57
2023-05-09T09:44:17.143Z,15.55
2023-05-09T09:45:20.268Z,15.56
2023-05-09T09:46:21.867Z,15.57
2023-05-09T09:47:33.047Z,15.60
2023-05-09T09:48:35.772Z,15.71
2023-05-09T09:49:37.239Z,15.78
2023-05-09T09:50:38.694Z,15.66
2023-05-09T09:51:41.299Z,15.76
2023-05-09T09:52:56.435Z,15.74
2023-05-09T09:53:57.899Z,15.68
2023-05-09T09:55:00.251Z,15.68
2023-05-09T09:56:01.746Z,15.82
2023-05-09T09:57:03.195Z,15.90
2023-05-09T09:58:16.810Z,15.97
2023-05-09T09:59:25.028Z,15.97
2023-05-09T10:00:28.147Z,15.93
2023-05-09T10:01:29.675Z,15.92
2023-05-09T10:02:31.330Z,16.11
2023-05-09T10:03:41.138Z,16.16
2023-05-09T10:04:43.909Z,16.27
2023-05-09T10:05:45.352Z,16.39
2023-05-09T10:07:15.022Z,16.42
2023-05-09T10:08:17.141Z,16.37
2023-05-09T10:09:18.906Z,16.45
2023-05-09T10:10:20.815Z,16.54
2023-05-09T10:11:22.234Z,16.61
2023-05-09T10:12:23.781Z,16.65
2023-05-09T10:13:26.374Z,16.67
2023-05-09T10:14:28.368Z,16.70
2023-05-09T10:15:41.481Z,16.70
2023-05-09T10:16:54.618Z,16.95
2023-05-09T10:18:01.651Z,16.93
2023-05-09T10:19:04.033Z,16.84
2023-05-09T10:20:06.280Z,16.68
2023-05-09T10:21:12.238Z,16.79
2023-05-09T10:22:17.814Z,16.92
2023-05-09T10:23:20.454Z,17.03
2023-05-09T10:24:34.094Z,17.20
2023-05-09T10:25:44.492Z,17.06
2023-05-09T10:26:49.679Z,17.11
2023-05-09T10:27:55.829Z,16.80
2023-05-09T10:29:00.143Z,16.92
2023-05-09T10:30:06.138Z,16.97
2023-05-09T10:31:14.823Z,16.87
2023-05-09T10:32:26.917Z,16.96
2023-05-09T10:33:37.823Z,17.11
2023-05-09T10:34:42.355Z,17.12
2023-05-09T10:35:48.015Z,17.24
2023-05-09T10:36:49.692Z,17.51
2023-05-09T10:37:55.875Z,17.60
2023-05-09T10:38:57.614Z,17.61
2023-05-09T10:40:01.709Z,17.39
2023-05-09T10:41:03.461Z,17.47
2023-05-09T10:42:05.906Z,17.53
2023-05-09T10:43:08.220Z,17.93
2023-05-09T10:44:10.592Z,17.83
2023-05-09T10:45:12.807Z,17.80
2023-05-09T10:46:15.601Z,17.94
2023-05-09T10:47:17.680Z,18.13
2023-05-09T10:48:19.176Z,18.35
2023-05-09T10:49:21.195Z,18.30
2023-05-09T10:50:23.042Z,18.34
2023-05-09T10:51:24.877Z,18.63
2023-05-09T10:52:31.947Z,18.85
2023-05-09T10:53:45.358Z,18.85
2023-05-09T10:54:58.471Z,18.77
2023-05-09T10:56:01.528Z,18.69
2023-05-09T10:57:03.558Z,18.67
2023-05-09T10:58:26.755Z,18.82
2023-05-09T10:59:41.230Z,18.68
2023-05-09T11:00:42.957Z,18.98
2023-05-09T11:01:44.475Z,18.84
2023-05-09T11:03:06.780Z,19.15
2023-05-09T11:04:14.464Z,19.11
2023-05-09T11:05:20.191Z,19.13
2023-05-09T11:06:44.701Z,19.40
2023-05-09T11:07:46.288Z,19.54
2023-05-09T11:08:47.726Z,19.82
2023-05-09T11:10:06.650Z,20.01
2023-05-09T11:11:22.348Z,19.91
2023-05-09T11:12:23.952Z,19.83
2023-05-09T11:13:30.396Z,19.60
2023-05-09T11:14:44.316Z,19.36
2023-05-09T11:16:03.940Z,19.42
2023-05-09T11:17:07.224Z,19.69
2023-05-09T11:18:11.764Z,19.51
2023-05-09T11:19:33.719Z,19.68
2023-05-09T11:20:36.511Z,19.61
2023-05-09T11:21:38.080Z,19.96
2023-05-09T11:22:44.113Z,19.98
2023-05-09T11:23:45.852Z,19.81
2023-05-09T11:24:51.984Z,19.78
2023-05-09T11:25:53.709Z,20.14
2023-05-09T11:26:55.366Z,20.19
2023-05-09T11:28:02.829Z,20.52
2023-05-09T11:29:06.588Z,20.43
2023-05-09T11:30:09.817Z,20.22
2023-05-09T11:31:16.515Z,20.45
2023-05-09T11:32:18.736Z,20.62
2023-05-09T11:33:27.197Z,20.40
2023-05-09T11:34:29.679Z,20.30
2023-05-09T11:35:31.326Z,20.51
2023-05-09T11:36:33.726Z,20.87
2023-05-09T11:37:46.898Z,20.87
2023-05-09T11:38:48.546Z,20.86
2023-05-09T11:40:00.932Z,20.71
2023-05-09T11:41:02.506Z,21.01
2023-05-09T11:42:04.769Z,20.89
2023-05-09T11:43:07.565Z,20.99
2023-05-09T11:44:20.974Z,21.12
2023-05-09T11:45:24.555Z,20.56
2023-05-09T11:46:27.081Z,20.76
2023-05-09T11:47:29.547Z,20.73
2023-05-09T11:48:31.100Z,21.13
2023-05-09T11:49:32.571Z,21.14
2023-05-09T11:50:34.009Z,21.09
2023-05-09T11:51:38.722Z,21.34
2023-05-09T11:52:41.508Z,21.61
2023-05-09T11:53:46.731Z,21.76
2023-05-09T11:54:49.516Z,21.65
2023-05-09T11:55:51.094Z,21.66
2023-05-09T11:56:52.676Z,21.64
2023-05-09T11:57:54.785Z,21.77
2023-05-09T11:58:56.762Z,21.68
2023-05-09T12:00:00.809Z,21.49
2023-05-09T12:01:02.654Z,21.78
2023-05-09T12:02:07.905Z,21.86
2023-05-09T12:03:09.526Z,21.84
2023-05-09T12:04:11.628Z,21.31
2023-05-09T12:05:15.604Z,21.65
2023-05-09T12:06:19.102Z,21.57
2023-05-09T12:07:20.615Z,21.46
2023-05-09T12:08:24.348Z,21.78
2023-05-09T12:09:31.554Z,21.69
2023-05-09T12:10:38.218Z,21.85
2023-05-09T12:11:49.881Z,21.59
2023-05-09T12:12:53.300Z,21.42
2023-05-09T12:13:54.834Z,21.52
2023-05-09T12:14:56.300Z,21.76
2023-05-09T12:16:01.915Z,21.68
2023-05-09T12:17:03.748Z,21.44
2023-05-09T12:18:05.944Z,21.77
2023-05-09T12:19:10.003Z,21.74
2023-05-09T12:20:12.647Z,21.45
2023-05-09T12:21:14.352Z,21.33
2023-05-09T12:22:15.737Z,21.46
2023-05-09T12:23:18.279Z,21.24
2023-05-09T12:24:22.958Z,21.36
2023-05-09T12:25:24.454Z,21.48
2023-05-09T12:26:27.080Z,21.62
2023-05-09T12:27:29.744Z,21.41
2023-05-09T12:28:31.462Z,21.46
2023-05-09T12:29:33.125Z,21.55
2023-05-09T12:30:34.734Z,21.47
2023-05-09T12:31:37.191Z,21.51
2023-05-09T12:32:40.282Z,21.83
2023-05-09T12:33:42.425Z,21.61
2023-05-09T12:34:48.432Z,21.85
2023-05-09T12:36:18.949Z,21.68
2023-05-09T12:37:20.628Z,21.87
2023-05-09T12:38:23.124Z,21.52
2023-05-09T12:39:24.674Z,21.48
2023-05-09T12:40:26.198Z,21.56
2023-05-09T12:41:39.058Z,21.34
2023-05-09T12:42:45.051Z,21.62
2023-05-09T12:43:49.119Z,21.51
2023-05-09T12:44:50.883Z,21.70
2023-05-09T12:45:52.627Z,21.57
2023-05-09T12:47:04.513Z,21.10
2023-05-09T12:48:06.287Z,21.64
2023-05-09T12:49:19.261Z,21.90
2023-05-09T12:50:21.282Z,21.62
2023-05-09T12:51:23.242Z,21.49
2023-05-09T12:52:25.130Z,21.54
2023-05-09T12:53:31.659Z,21.63
2023-05-09T12:54:33.189Z,21.74
2023-05-09T12:55:41.497Z,21.89
2023-05-09T12:56:42.925Z,22.02
2023-05-09T12:57:58.253Z,21.86
2023-05-09T12:58:59.681Z,21.39
2023-05-09T13:00:04.214Z,21.13
2023-05-09T13:01:06.028Z,21.36
2023-05-09T13:02:07.669Z,21.66
2023-05-09T13:03:41.419Z,21.69
2023-05-09T13:04:42.846Z,21.85
2023-05-09T13:06:04.643Z,21.67
2023-05-09T13:07:12.465Z,21.65
2023-05-09T13:08:13.881Z,21.63
2023-05-09T13:09:15.864Z,21.53
2023-05-09T13:10:27.370Z,21.48
2023-05-09T13:11:29.257Z,21.43
2023-05-09T13:12:30.811Z,21.37
2023-05-09T13:13:33.003Z,21.80
2023-05-09T13:14:34.460Z,21.91
2023-05-09T13:15:36.225Z,21.89
2023-05-09T13:16:37.717Z,22.12
2023-05-09T13:17:39.236Z,22.04
2023-05-09T13:18:40.733Z,22.16
2023-05-09T13:19:42.125Z,22.03
2023-05-09T13:20:43.629Z,22.38
2023-05-09T13:21:45.058Z,22.41
2023-05-09T13:22:46.881Z,22.46
2023-05-09T13:23:50.009Z,22.49
2023-05-09T13:24:54.434Z,22.27
2023-05-09T13:25:55.850Z,22.47
2023-05-09T13:26:57.311Z,22.11
2023-05-09T13:27:58.716Z,22.19
2023-05-09T13:29:00.166Z,22.27
2023-05-09T13:30:01.979Z,22.37
2023-05-09T13:31:03.982Z,22.63
2023-05-09T13:32:05.802Z,22.70
2023-05-09T13:33:24.081Z,22.75
2023-05-09T13:34:27.086Z,22.25
2023-05-09T13:35:28.563Z,21.98
2023-05-09T13:36:30.002Z,22.13
2023-05-09T13:37:31.462Z,21.99
2023-05-09T13:38:36.684Z,22.31
2023-05-09T13:39:38.099Z,22.42
2023-05-09T13:40:39.510Z,22.24
2023-05-09T13:41:41.055Z,22.04
2023-05-09T13:42:42.485Z,21.85
2023-05-09T13:43:43.886Z,22.13
2023-05-09T13:44:45.402Z,22.31
2023-05-09T13:45:46.871Z,22.45
2023-05-09T13:46:48.431Z,22.63
2023-05-09T13:47:50.812Z,22.64